sensor_id;sensor_type;location;lat;lon;timestamp;P1;durP1;ratioP1;P2;durP2;ratioP2
60239;SDS011;46102;39.012;-7.064;2024-01-07T00:00:58;5.07;;;2.90;;
60239;SDS011;46102;39.012;-7.064;2024-01-07T00:02:59;5.18;;;3.22;;
60239;SDS011;46102;39.012;-7.064;2024-01-07T00:05:00;4.03;;;2.72;;
60239;SDS011;46102;39.012;-7.064;2024-01-07T00:07:02;2.95;;;2.75;;
60239;SDS011;46102;39.012;-7.064;2024-01-07T00:09:04;2.65;;;2.45;;
60239;SDS011;46102;39.012;-7.064;2024-01-07T00:11:04;2.90;;;2.50;;
60239;SDS011;46102;39.012;-7.064;2024-01-07T00:13:05;3.97;;;3.45;;
60239;SDS011;46102;39.012;-7.064;2024-01-07T00:15:06;3.67;;;3.38;;
60239;SDS011;46102;39.012;-7.064;2024-01-07T00:17:07;5.15;;;2.92;;
60239;SDS011;46102;39.012;-7.064;2024-01-07T00:19:08;3.78;;;2.78;;
60239;SDS011;46102;39.012;-7.064;2024-01-07T00:21:09;3.42;;;3.13;;
60239;SDS011;46102;39.012;-7.064;2024-01-07T00:23:09;7.20;;;3.83;;
60239;SDS011;46102;39.012;-7.064;2024-01-07T00:25:10;5.63;;;3.35;;
60239;SDS011;46102;39.012;-7.064;2024-01-07T00:27:11;6.90;;;3.35;;
60239;SDS011;46102;39.012;-7.064;2024-01-07T00:29:12;3.90;;;3.58;;
60239;SDS011;46102;39.012;-7.064;2024-01-07T00:31:14;4.65;;;3.85;;
60239;SDS011;46102;39.012;-7.064;2024-01-07T00:33:14;4.30;;;3.80;;
60239;SDS011;46102;39.012;-7.064;2024-01-07T00:35:15;4.60;;;3.78;;
60239;SDS011;46102;39.012;-7.064;2024-01-07T00:37:16;4.68;;;4.15;;
60239;SDS011;46102;39.012;-7.064;2024-01-07T00:39:17;5.00;;;3.97;;
60239;SDS011;46102;39.012;-7.064;2024-01-07T00:41:17;6.07;;;5.28;;
60239;SDS011;46102;39.012;-7.064;2024-01-07T00:43:18;7.97;;;5.22;;
60239;SDS011;46102;39.012;-7.064;2024-01-07T00:45:19;5.35;;;4.65;;
60239;SDS011;46102;39.012;-7.064;2024-01-07T00:47:20;5.25;;;4.75;;
60239;SDS011;46102;39.012;-7.064;2024-01-07T00:49:21;4.95;;;4.25;;
60239;SDS011;46102;39.012;-7.064;2024-01-07T00:51:22;8.85;;;4.78;;
60239;SDS011;46102;39.012;-7.064;2024-01-07T00:53:23;6.82;;;4.65;;
60239;SDS011;46102;39.012;-7.064;2024-01-07T00:55:23;7.35;;;5.80;;
60239;SDS011;46102;39.012;-7.064;2024-01-07T00:57:24;6.82;;;4.63;;
60239;SDS011;46102;39.012;-7.064;2024-01-07T00:59:25;6.60;;;4.75;;
60239;SDS011;46102;39.012;-7.064;2024-01-07T01:03:30;6.07;;;4.70;;
60239;SDS011;46102;39.012;-7.064;2024-01-07T01:05:31;9.82;;;6.10;;
60239;SDS011;46102;39.012;-7.064;2024-01-07T01:07:32;8.77;;;4.90;;
60239;SDS011;46102;39.012;-7.064;2024-01-07T01:09:33;5.90;;;4.35;;
60239;SDS011;46102;39.012;-7.064;2024-01-07T01:11:34;4.70;;;4.20;;
60239;SDS011;46102;39.012;-7.064;2024-01-07T01:13:34;5.47;;;4.07;;
60239;SDS011;46102;39.012;-7.064;2024-01-07T01:15:36;5.85;;;3.45;;
60239;SDS011;46102;39.012;-7.064;2024-01-07T01:17:37;4.15;;;2.85;;
60239;SDS011;46102;39.012;-7.064;2024-01-07T01:19:38;3.97;;;3.58;;
60239;SDS011;46102;39.012;-7.064;2024-01-07T01:21:39;4.50;;;3.55;;
60239;SDS011;46102;39.012;-7.064;2024-01-07T01:23:39;4.85;;;2.85;;
60239;SDS011;46102;39.012;-7.064;2024-01-07T01:25:40;4.25;;;2.80;;
60239;SDS011;46102;39.012;-7.064;2024-01-07T01:27:41;23.73;;;9.68;;
60239;SDS011;46102;39.012;-7.064;2024-01-07T01:29:42;41.40;;;19.65;;
60239;SDS011;46102;39.012;-7.064;2024-01-07T01:31:43;53.75;;;26.42;;
60239;SDS011;46102;39.012;-7.064;2024-01-07T01:33:43;26.85;;;14.13;;
60239;SDS011;46102;39.012;-7.064;2024-01-07T01:35:44;16.55;;;10.60;;
60239;SDS011;46102;39.012;-7.064;2024-01-07T01:37:45;15.00;;;11.70;;
60239;SDS011;46102;39.012;-7.064;2024-01-07T01:39:46;15.40;;;10.80;;
60239;SDS011;46102;39.012;-7.064;2024-01-07T01:41:47;9.48;;;7.32;;
60239;SDS011;46102;39.012;-7.064;2024-01-07T01:43:48;5.22;;;4.75;;
60239;SDS011;46102;39.012;-7.064;2024-01-07T01:45:49;5.00;;;4.43;;
60239;SDS011;46102;39.012;-7.064;2024-01-07T01:47:50;5.90;;;5.30;;
60239;SDS011;46102;39.012;-7.064;2024-01-07T01:49:51;8.10;;;6.38;;
60239;SDS011;46102;39.012;-7.064;2024-01-07T01:51:52;7.40;;;5.70;;
60239;SDS011;46102;39.012;-7.064;2024-01-07T01:53:53;4.97;;;4.57;;
60239;SDS011;46102;39.012;-7.064;2024-01-07T01:55:56;6.47;;;5.03;;
60239;SDS011;46102;39.012;-7.064;2024-01-07T01:57:58;5.20;;;4.13;;
60239;SDS011;46102;39.012;-7.064;2024-01-07T02:00:04;8.95;;;7.38;;
60239;SDS011;46102;39.012;-7.064;2024-01-07T02:02:05;7.60;;;5.80;;
60239;SDS011;46102;39.012;-7.064;2024-01-07T02:04:06;5.97;;;5.30;;
60239;SDS011;46102;39.012;-7.064;2024-01-07T02:06:09;6.63;;;4.38;;
60239;SDS011;46102;39.012;-7.064;2024-01-07T02:08:12;4.80;;;4.20;;
60239;SDS011;46102;39.012;-7.064;2024-01-07T02:10:13;5.05;;;4.65;;
60239;SDS011;46102;39.012;-7.064;2024-01-07T02:12:14;8.45;;;5.60;;
60239;SDS011;46102;39.012;-7.064;2024-01-07T02:14:15;5.43;;;3.92;;
60239;SDS011;46102;39.012;-7.064;2024-01-07T02:16:16;6.50;;;4.18;;
60239;SDS011;46102;39.012;-7.064;2024-01-07T02:18:17;6.72;;;4.07;;
60239;SDS011;46102;39.012;-7.064;2024-01-07T02:20:18;4.05;;;3.08;;
60239;SDS011;46102;39.012;-7.064;2024-01-07T02:22:19;5.85;;;3.50;;
60239;SDS011;46102;39.012;-7.064;2024-01-07T02:24:19;5.72;;;3.20;;
60239;SDS011;46102;39.012;-7.064;2024-01-07T02:26:20;4.28;;;3.30;;
60239;SDS011;46102;39.012;-7.064;2024-01-07T02:28:21;5.55;;;3.30;;
60239;SDS011;46102;39.012;-7.064;2024-01-07T02:30:22;3.92;;;3.53;;
60239;SDS011;46102;39.012;-7.064;2024-01-07T02:32:23;4.93;;;3.85;;
60239;SDS011;46102;39.012;-7.064;2024-01-07T02:34:24;3.47;;;3.17;;
60239;SDS011;46102;39.012;-7.064;2024-01-07T02:36:25;5.88;;;3.70;;
60239;SDS011;46102;39.012;-7.064;2024-01-07T02:38:26;4.35;;;3.10;;
60239;SDS011;46102;39.012;-7.064;2024-01-07T02:40:27;4.38;;;3.00;;
60239;SDS011;46102;39.012;-7.064;2024-01-07T02:42:27;6.43;;;3.05;;
60239;SDS011;46102;39.012;-7.064;2024-01-07T02:44:28;4.40;;;3.65;;
60239;SDS011;46102;39.012;-7.064;2024-01-07T02:46:29;6.47;;;3.58;;
60239;SDS011;46102;39.012;-7.064;2024-01-07T02:48:31;4.82;;;3.60;;
60239;SDS011;46102;39.012;-7.064;2024-01-07T02:50:32;6.47;;;3.53;;
60239;SDS011;46102;39.012;-7.064;2024-01-07T02:52:33;4.55;;;3.28;;
60239;SDS011;46102;39.012;-7.064;2024-01-07T02:54:33;5.65;;;3.08;;
60239;SDS011;46102;39.012;-7.064;2024-01-07T02:56:34;5.28;;;2.80;;
60239;SDS011;46102;39.012;-7.064;2024-01-07T02:58:35;6.25;;;3.30;;
60239;SDS011;46102;39.012;-7.064;2024-01-07T03:00:36;5.65;;;3.42;;
60239;SDS011;46102;39.012;-7.064;2024-01-07T03:02:37;5.28;;;3.10;;
60239;SDS011;46102;39.012;-7.064;2024-01-07T03:04:37;6.55;;;3.63;;
60239;SDS011;46102;39.012;-7.064;2024-01-07T03:06:38;3.45;;;3.15;;
60239;SDS011;46102;39.012;-7.064;2024-01-07T03:08:39;4.07;;;2.80;;
60239;SDS011;46102;39.012;-7.064;2024-01-07T03:10:40;3.28;;;2.97;;
60239;SDS011;46102;39.012;-7.064;2024-01-07T03:12:41;3.40;;;3.08;;
60239;SDS011;46102;39.012;-7.064;2024-01-07T03:14:41;3.13;;;2.53;;
60239;SDS011;46102;39.012;-7.064;2024-01-07T03:16:42;4.68;;;3.15;;
60239;SDS011;46102;39.012;-7.064;2024-01-07T03:18:43;4.80;;;3.38;;
60239;SDS011;46102;39.012;-7.064;2024-01-07T03:20:44;3.63;;;2.58;;
60239;SDS011;46102;39.012;-7.064;2024-01-07T03:22:45;3.00;;;2.65;;
60239;SDS011;46102;39.012;-7.064;2024-01-07T03:24:45;3.50;;;2.63;;
60239;SDS011;46102;39.012;-7.064;2024-01-07T03:26:47;4.70;;;2.63;;
60239;SDS011;46102;39.012;-7.064;2024-01-07T03:28:48;5.63;;;3.13;;
60239;SDS011;46102;39.012;-7.064;2024-01-07T03:30:49;5.00;;;2.95;;
60239;SDS011;46102;39.012;-7.064;2024-01-07T03:32:49;6.40;;;3.20;;
60239;SDS011;46102;39.012;-7.064;2024-01-07T03:34:50;3.95;;;2.40;;
60239;SDS011;46102;39.012;-7.064;2024-01-07T03:36:51;5.03;;;1.98;;
60239;SDS011;46102;39.012;-7.064;2024-01-07T03:38:52;3.47;;;2.55;;
60239;SDS011;46102;39.012;-7.064;2024-01-07T03:40:54;1.70;;;1.50;;
60239;SDS011;46102;39.012;-7.064;2024-01-07T03:42:55;2.03;;;1.80;;
60239;SDS011;46102;39.012;-7.064;2024-01-07T03:44:55;2.95;;;1.70;;
60239;SDS011;46102;39.012;-7.064;2024-01-07T03:46:56;5.57;;;2.85;;
60239;SDS011;46102;39.012;-7.064;2024-01-07T03:48:57;2.30;;;1.58;;
60239;SDS011;46102;39.012;-7.064;2024-01-07T03:50:58;3.60;;;2.50;;
60239;SDS011;46102;39.012;-7.064;2024-01-07T03:52:59;4.55;;;1.77;;
60239;SDS011;46102;39.012;-7.064;2024-01-07T03:54:59;2.33;;;1.88;;
60239;SDS011;46102;39.012;-7.064;2024-01-07T03:57:00;8.30;;;3.47;;
60239;SDS011;46102;39.012;-7.064;2024-01-07T03:59:01;3.95;;;2.17;;
60239;SDS011;46102;39.012;-7.064;2024-01-07T04:01:02;5.10;;;2.67;;
60239;SDS011;46102;39.012;-7.064;2024-01-07T04:03:03;5.45;;;2.47;;
60239;SDS011;46102;39.012;-7.064;2024-01-07T04:05:04;4.43;;;2.75;;
60239;SDS011;46102;39.012;-7.064;2024-01-07T04:07:05;2.60;;;2.30;;
60239;SDS011;46102;39.012;-7.064;2024-01-07T04:09:06;5.88;;;2.28;;
60239;SDS011;46102;39.012;-7.064;2024-01-07T04:11:08;5.40;;;2.22;;
60239;SDS011;46102;39.012;-7.064;2024-01-07T04:13:09;2.70;;;2.10;;
60239;SDS011;46102;39.012;-7.064;2024-01-07T04:15:10;3.40;;;2.63;;
60239;SDS011;46102;39.012;-7.064;2024-01-07T04:17:12;3.40;;;2.85;;
60239;SDS011;46102;39.012;-7.064;2024-01-07T04:19:13;4.07;;;2.55;;
60239;SDS011;46102;39.012;-7.064;2024-01-07T04:21:14;2.45;;;2.25;;
60239;SDS011;46102;39.012;-7.064;2024-01-07T04:23:14;5.07;;;2.47;;
60239;SDS011;46102;39.012;-7.064;2024-01-07T04:25:15;3.17;;;2.88;;
60239;SDS011;46102;39.012;-7.064;2024-01-07T04:27:16;3.33;;;2.88;;
60239;SDS011;46102;39.012;-7.064;2024-01-07T04:29:17;3.33;;;2.70;;
60239;SDS011;46102;39.012;-7.064;2024-01-07T04:31:18;2.50;;;2.25;;
60239;SDS011;46102;39.012;-7.064;2024-01-07T04:33:18;4.93;;;2.90;;
60239;SDS011;46102;39.012;-7.064;2024-01-07T04:35:19;7.78;;;2.80;;
60239;SDS011;46102;39.012;-7.064;2024-01-07T04:37:20;4.55;;;3.08;;
60239;SDS011;46102;39.012;-7.064;2024-01-07T04:39:21;5.53;;;3.45;;
60239;SDS011;46102;39.012;-7.064;2024-01-07T04:41:23;3.95;;;3.00;;
60239;SDS011;46102;39.012;-7.064;2024-01-07T04:43:23;6.32;;;3.47;;
60239;SDS011;46102;39.012;-7.064;2024-01-07T04:45:24;5.22;;;3.25;;
60239;SDS011;46102;39.012;-7.064;2024-01-07T04:47:26;3.50;;;2.92;;
60239;SDS011;46102;39.012;-7.064;2024-01-07T04:49:29;3.10;;;2.85;;
60239;SDS011;46102;39.012;-7.064;2024-01-07T04:51:30;3.05;;;2.50;;
60239;SDS011;46102;39.012;-7.064;2024-01-07T04:53:31;2.65;;;2.22;;
60239;SDS011;46102;39.012;-7.064;2024-01-07T04:55:31;2.30;;;2.10;;
60239;SDS011;46102;39.012;-7.064;2024-01-07T04:57:32;2.53;;;2.33;;
60239;SDS011;46102;39.012;-7.064;2024-01-07T04:59:33;3.75;;;2.10;;
60239;SDS011;46102;39.012;-7.064;2024-01-07T05:01:34;2.20;;;1.98;;
60239;SDS011;46102;39.012;-7.064;2024-01-07T05:03:35;3.03;;;2.13;;
60239;SDS011;46102;39.012;-7.064;2024-01-07T05:05:38;6.15;;;2.42;;
60239;SDS011;46102;39.012;-7.064;2024-01-07T05:07:38;3.03;;;2.72;;
60239;SDS011;46102;39.012;-7.064;2024-01-07T05:09:39;2.13;;;1.90;;
60239;SDS011;46102;39.012;-7.064;2024-01-07T05:11:40;2.53;;;2.00;;
60239;SDS011;46102;39.012;-7.064;2024-01-07T05:13:41;4.75;;;2.20;;
60239;SDS011;46102;39.012;-7.064;2024-01-07T05:15:42;2.70;;;2.30;;
60239;SDS011;46102;39.012;-7.064;2024-01-07T05:17:42;3.80;;;1.80;;
60239;SDS011;46102;39.012;-7.064;2024-01-07T05:19:43;2.10;;;1.67;;
60239;SDS011;46102;39.012;-7.064;2024-01-07T05:21:44;2.38;;;2.08;;
60239;SDS011;46102;39.012;-7.064;2024-01-07T05:23:45;2.10;;;2.00;;
60239;SDS011;46102;39.012;-7.064;2024-01-07T05:25:45;3.80;;;2.65;;
60239;SDS011;46102;39.012;-7.064;2024-01-07T05:27:46;3.13;;;2.00;;
60239;SDS011;46102;39.012;-7.064;2024-01-07T05:29:47;4.95;;;2.55;;
60239;SDS011;46102;39.012;-7.064;2024-01-07T05:31:48;3.20;;;1.95;;
60239;SDS011;46102;39.012;-7.064;2024-01-07T05:33:48;2.65;;;2.20;;
60239;SDS011;46102;39.012;-7.064;2024-01-07T05:35:49;3.88;;;2.25;;
60239;SDS011;46102;39.012;-7.064;2024-01-07T05:37:50;2.03;;;1.85;;
60239;SDS011;46102;39.012;-7.064;2024-01-07T05:39:51;1.80;;;1.40;;
60239;SDS011;46102;39.012;-7.064;2024-01-07T05:41:51;1.55;;;1.42;;
60239;SDS011;46102;39.012;-7.064;2024-01-07T05:43:52;3.55;;;1.75;;
60239;SDS011;46102;39.012;-7.064;2024-01-07T05:45:53;3.90;;;1.75;;
60239;SDS011;46102;39.012;-7.064;2024-01-07T05:47:54;2.40;;;2.15;;
60239;SDS011;46102;39.012;-7.064;2024-01-07T05:49:55;2.97;;;1.70;;
60239;SDS011;46102;39.012;-7.064;2024-01-07T05:51:55;2.10;;;1.70;;
60239;SDS011;46102;39.012;-7.064;2024-01-07T05:53:56;3.60;;;1.40;;
60239;SDS011;46102;39.012;-7.064;2024-01-07T05:55:57;2.17;;;1.75;;
60239;SDS011;46102;39.012;-7.064;2024-01-07T05:58:00;1.50;;;1.40;;
60239;SDS011;46102;39.012;-7.064;2024-01-07T06:00:00;2.03;;;1.90;;
60239;SDS011;46102;39.012;-7.064;2024-01-07T06:02:01;1.58;;;1.48;;
60239;SDS011;46102;39.012;-7.064;2024-01-07T06:04:02;1.48;;;1.38;;
60239;SDS011;46102;39.012;-7.064;2024-01-07T06:06:03;3.75;;;2.17;;
60239;SDS011;46102;39.012;-7.064;2024-01-07T06:08:04;2.47;;;2.20;;
60239;SDS011;46102;39.012;-7.064;2024-01-07T06:10:05;2.20;;;1.88;;
60239;SDS011;46102;39.012;-7.064;2024-01-07T06:12:06;4.57;;;1.83;;
60239;SDS011;46102;39.012;-7.064;2024-01-07T06:14:07;2.00;;;1.77;;
60239;SDS011;46102;39.012;-7.064;2024-01-07T06:16:08;7.60;;;2.60;;
60239;SDS011;46102;39.012;-7.064;2024-01-07T06:18:09;3.10;;;1.65;;
60239;SDS011;46102;39.012;-7.064;2024-01-07T06:20:10;3.30;;;2.22;;
60239;SDS011;46102;39.012;-7.064;2024-01-07T06:22:11;2.88;;;2.13;;
60239;SDS011;46102;39.012;-7.064;2024-01-07T06:24:12;4.95;;;2.75;;
60239;SDS011;46102;39.012;-7.064;2024-01-07T06:26:12;7.50;;;2.65;;
60239;SDS011;46102;39.012;-7.064;2024-01-07T06:28:13;2.80;;;2.60;;
60239;SDS011;46102;39.012;-7.064;2024-01-07T06:30:14;3.85;;;2.85;;
60239;SDS011;46102;39.012;-7.064;2024-01-07T06:32:17;4.78;;;3.58;;
60239;SDS011;46102;39.012;-7.064;2024-01-07T06:34:17;5.32;;;3.60;;
60239;SDS011;46102;39.012;-7.064;2024-01-07T06:36:18;3.58;;;3.20;;
60239;SDS011;46102;39.012;-7.064;2024-01-07T06:38:19;4.57;;;3.28;;
60239;SDS011;46102;39.012;-7.064;2024-01-07T06:40:20;4.22;;;3.22;;
60239;SDS011;46102;39.012;-7.064;2024-01-07T06:42:21;5.63;;;3.30;;
60239;SDS011;46102;39.012;-7.064;2024-01-07T06:44:21;4.28;;;3.05;;
60239;SDS011;46102;39.012;-7.064;2024-01-07T06:46:22;7.75;;;3.00;;
60239;SDS011;46102;39.012;-7.064;2024-01-07T06:48:23;3.58;;;2.58;;
60239;SDS011;46102;39.012;-7.064;2024-01-07T06:50:24;4.30;;;3.28;;
60239;SDS011;46102;39.012;-7.064;2024-01-07T06:52:24;5.13;;;2.88;;
60239;SDS011;46102;39.012;-7.064;2024-01-07T06:54:25;3.28;;;2.58;;
60239;SDS011;46102;39.012;-7.064;2024-01-07T06:56:26;6.38;;;2.22;;
60239;SDS011;46102;39.012;-7.064;2024-01-07T06:58:26;4.93;;;2.50;;
60239;SDS011;46102;39.012;-7.064;2024-01-07T07:00:27;4.50;;;2.58;;
60239;SDS011;46102;39.012;-7.064;2024-01-07T07:02:28;2.55;;;1.98;;
60239;SDS011;46102;39.012;-7.064;2024-01-07T07:04:29;4.95;;;2.05;;
60239;SDS011;46102;39.012;-7.064;2024-01-07T07:06:29;2.83;;;1.90;;
60239;SDS011;46102;39.012;-7.064;2024-01-07T07:08:30;3.08;;;2.50;;
60239;SDS011;46102;39.012;-7.064;2024-01-07T07:10:31;4.82;;;2.20;;
60239;SDS011;46102;39.012;-7.064;2024-01-07T07:12:32;4.53;;;2.40;;
60239;SDS011;46102;39.012;-7.064;2024-01-07T07:14:33;2.17;;;1.83;;
60239;SDS011;46102;39.012;-7.064;2024-01-07T07:16:33;2.83;;;1.83;;
60239;SDS011;46102;39.012;-7.064;2024-01-07T07:18:34;2.97;;;1.75;;
60239;SDS011;46102;39.012;-7.064;2024-01-07T07:20:35;6.03;;;2.47;;
60239;SDS011;46102;39.012;-7.064;2024-01-07T07:22:36;2.28;;;1.60;;
60239;SDS011;46102;39.012;-7.064;2024-01-07T07:24:39;3.30;;;1.60;;
60239;SDS011;46102;39.012;-7.064;2024-01-07T07:26:41;1.65;;;1.55;;
60239;SDS011;46102;39.012;-7.064;2024-01-07T07:28:42;1.85;;;1.42;;
60239;SDS011;46102;39.012;-7.064;2024-01-07T07:30:43;3.38;;;1.77;;
60239;SDS011;46102;39.012;-7.064;2024-01-07T07:32:44;2.55;;;1.73;;
60239;SDS011;46102;39.012;-7.064;2024-01-07T07:34:46;1.83;;;1.40;;
60239;SDS011;46102;39.012;-7.064;2024-01-07T07:36:47;2.38;;;1.92;;
60239;SDS011;46102;39.012;-7.064;2024-01-07T07:38:48;3.13;;;1.55;;
60239;SDS011;46102;39.012;-7.064;2024-01-07T07:40:48;2.70;;;1.77;;
60239;SDS011;46102;39.012;-7.064;2024-01-07T07:44:53;2.97;;;1.95;;
60239;SDS011;46102;39.012;-7.064;2024-01-07T07:46:54;1.45;;;1.35;;
60239;SDS011;46102;39.012;-7.064;2024-01-07T07:48:55;3.15;;;2.00;;
60239;SDS011;46102;39.012;-7.064;2024-01-07T07:50:55;4.43;;;2.13;;
60239;SDS011;46102;39.012;-7.064;2024-01-07T07:52:56;2.10;;;1.90;;
60239;SDS011;46102;39.012;-7.064;2024-01-07T07:54:57;3.13;;;2.72;;
60239;SDS011;46102;39.012;-7.064;2024-01-07T07:56:58;1.95;;;1.77;;
60239;SDS011;46102;39.012;-7.064;2024-01-07T07:58:59;2.35;;;2.13;;
60239;SDS011;46102;39.012;-7.064;2024-01-07T08:01:00;2.92;;;2.47;;
60239;SDS011;46102;39.012;-7.064;2024-01-07T08:03:01;4.63;;;2.53;;
60239;SDS011;46102;39.012;-7.064;2024-01-07T08:05:01;2.72;;;2.35;;
60239;SDS011;46102;39.012;-7.064;2024-01-07T08:07:02;4.05;;;1.85;;
60239;SDS011;46102;39.012;-7.064;2024-01-07T08:09:03;4.18;;;2.45;;
60239;SDS011;46102;39.012;-7.064;2024-01-07T08:11:04;5.47;;;2.17;;
60239;SDS011;46102;39.012;-7.064;2024-01-07T08:13:08;3.00;;;2.38;;
60239;SDS011;46102;39.012;-7.064;2024-01-07T08:15:09;3.72;;;2.03;;
60239;SDS011;46102;39.012;-7.064;2024-01-07T08:17:10;3.30;;;1.67;;
60239;SDS011;46102;39.012;-7.064;2024-01-07T08:19:11;2.85;;;1.92;;
60239;SDS011;46102;39.012;-7.064;2024-01-07T08:21:11;2.55;;;1.80;;
60239;SDS011;46102;39.012;-7.064;2024-01-07T08:23:12;4.22;;;2.10;;
60239;SDS011;46102;39.012;-7.064;2024-01-07T08:25:13;3.95;;;2.30;;
60239;SDS011;46102;39.012;-7.064;2024-01-07T08:27:14;3.85;;;2.85;;
60239;SDS011;46102;39.012;-7.064;2024-01-07T08:29:14;4.88;;;2.20;;
60239;SDS011;46102;39.012;-7.064;2024-01-07T08:31:15;3.50;;;2.53;;
60239;SDS011;46102;39.012;-7.064;2024-01-07T08:33:16;8.77;;;4.63;;
60239;SDS011;46102;39.012;-7.064;2024-01-07T08:35:17;11.80;;;7.40;;
60239;SDS011;46102;39.012;-7.064;2024-01-07T08:37:18;13.35;;;9.15;;
60239;SDS011;46102;39.012;-7.064;2024-01-07T08:39:18;22.67;;;11.10;;
60239;SDS011;46102;39.012;-7.064;2024-01-07T08:41:19;20.88;;;12.32;;
60239;SDS011;46102;39.012;-7.064;2024-01-07T08:43:21;22.50;;;11.82;;
60239;SDS011;46102;39.012;-7.064;2024-01-07T08:45:22;25.42;;;13.98;;
60239;SDS011;46102;39.012;-7.064;2024-01-07T08:47:22;22.90;;;12.60;;
60239;SDS011;46102;39.012;-7.064;2024-01-07T08:49:23;18.33;;;10.13;;
60239;SDS011;46102;39.012;-7.064;2024-01-07T08:51:24;16.23;;;9.15;;
60239;SDS011;46102;39.012;-7.064;2024-01-07T08:53:25;11.15;;;7.70;;
60239;SDS011;46102;39.012;-7.064;2024-01-07T08:55:26;8.07;;;4.60;;
60239;SDS011;46102;39.012;-7.064;2024-01-07T08:57:27;9.73;;;5.18;;
60239;SDS011;46102;39.012;-7.064;2024-01-07T08:59:28;15.48;;;8.13;;
60239;SDS011;46102;39.012;-7.064;2024-01-07T09:01:29;8.93;;;6.18;;
60239;SDS011;46102;39.012;-7.064;2024-01-07T09:03:30;10.27;;;7.18;;
60239;SDS011;46102;39.012;-7.064;2024-01-07T09:05:31;8.07;;;6.03;;
60239;SDS011;46102;39.012;-7.064;2024-01-07T09:07:31;7.60;;;5.47;;
60239;SDS011;46102;39.012;-7.064;2024-01-07T09:09:32;11.60;;;7.10;;
60239;SDS011;46102;39.012;-7.064;2024-01-07T09:11:33;10.18;;;6.47;;
60239;SDS011;46102;39.012;-7.064;2024-01-07T09:13:34;14.45;;;7.88;;
60239;SDS011;46102;39.012;-7.064;2024-01-07T09:15:35;8.77;;;5.95;;
60239;SDS011;46102;39.012;-7.064;2024-01-07T09:17:36;6.13;;;4.47;;
60239;SDS011;46102;39.012;-7.064;2024-01-07T09:19:39;3.03;;;2.83;;
60239;SDS011;46102;39.012;-7.064;2024-01-07T09:21:40;5.03;;;2.55;;
60239;SDS011;46102;39.012;-7.064;2024-01-07T09:23:41;2.63;;;2.40;;
60239;SDS011;46102;39.012;-7.064;2024-01-07T09:25:42;3.10;;;1.98;;
60239;SDS011;46102;39.012;-7.064;2024-01-07T09:27:43;3.10;;;1.67;;
60239;SDS011;46102;39.012;-7.064;2024-01-07T09:29:44;3.85;;;1.90;;
60239;SDS011;46102;39.012;-7.064;2024-01-07T09:31:44;2.75;;;2.00;;
60239;SDS011;46102;39.012;-7.064;2024-01-07T09:33:45;2.90;;;1.92;;
60239;SDS011;46102;39.012;-7.064;2024-01-07T09:35:46;2.30;;;2.20;;
60239;SDS011;46102;39.012;-7.064;2024-01-07T09:37:47;1.70;;;1.55;;
60239;SDS011;46102;39.012;-7.064;2024-01-07T09:39:47;2.28;;;1.75;;
60239;SDS011;46102;39.012;-7.064;2024-01-07T09:41:49;4.13;;;1.58;;
60239;SDS011;46102;39.012;-7.064;2024-01-07T09:43:50;2.08;;;1.40;;
60239;SDS011;46102;39.012;-7.064;2024-01-07T09:45:52;2.30;;;1.50;;
60239;SDS011;46102;39.012;-7.064;2024-01-07T09:47:54;1.80;;;1.70;;
60239;SDS011;46102;39.012;-7.064;2024-01-07T09:49:55;2.90;;;1.70;;
60239;SDS011;46102;39.012;-7.064;2024-01-07T09:51:57;2.13;;;1.42;;
60239;SDS011;46102;39.012;-7.064;2024-01-07T09:54:02;1.63;;;1.52;;
60239;SDS011;46102;39.012;-7.064;2024-01-07T09:56:07;1.85;;;1.75;;
60239;SDS011;46102;39.012;-7.064;2024-01-07T09:58:11;1.50;;;1.33;;
60239;SDS011;46102;39.012;-7.064;2024-01-07T10:00:12;1.63;;;1.30;;
60239;SDS011;46102;39.012;-7.064;2024-01-07T10:02:14;1.48;;;1.38;;
60239;SDS011;46102;39.012;-7.064;2024-01-07T10:04:16;1.45;;;1.30;;
60239;SDS011;46102;39.012;-7.064;2024-01-07T10:06:20;2.80;;;1.63;;
60239;SDS011;46102;39.012;-7.064;2024-01-07T10:08:21;2.00;;;1.30;;
60239;SDS011;46102;39.012;-7.064;2024-01-07T10:10:22;3.97;;;1.65;;
60239;SDS011;46102;39.012;-7.064;2024-01-07T10:12:23;2.38;;;1.45;;
60239;SDS011;46102;39.012;-7.064;2024-01-07T10:14:24;1.30;;;1.20;;
60239;SDS011;46102;39.012;-7.064;2024-01-07T10:16:26;1.85;;;1.75;;
60239;SDS011;46102;39.012;-7.064;2024-01-07T10:18:27;3.75;;;1.60;;
60239;SDS011;46102;39.012;-7.064;2024-01-07T10:20:31;2.15;;;1.58;;
60239;SDS011;46102;39.012;-7.064;2024-01-07T10:22:34;2.25;;;1.98;;
60239;SDS011;46102;39.012;-7.064;2024-01-07T10:24:35;2.53;;;1.67;;
60239;SDS011;46102;39.012;-7.064;2024-01-07T10:26:40;2.05;;;1.80;;
60239;SDS011;46102;39.012;-7.064;2024-01-07T10:28:41;3.97;;;1.40;;
60239;SDS011;46102;39.012;-7.064;2024-01-07T10:30:49;1.58;;;1.45;;
60239;SDS011;46102;39.012;-7.064;2024-01-07T10:32:55;1.80;;;1.70;;
60239;SDS011;46102;39.012;-7.064;2024-01-07T10:35:01;3.88;;;1.40;;
60239;SDS011;46102;39.012;-7.064;2024-01-07T10:37:06;2.20;;;1.98;;
60239;SDS011;46102;39.012;-7.064;2024-01-07T10:39:07;3.13;;;1.75;;
60239;SDS011;46102;39.012;-7.064;2024-01-07T10:41:08;1.90;;;1.45;;
60239;SDS011;46102;39.012;-7.064;2024-01-07T10:43:11;3.53;;;1.42;;
60239;SDS011;46102;39.012;-7.064;2024-01-07T10:45:15;1.60;;;1.40;;
60239;SDS011;46102;39.012;-7.064;2024-01-07T10:47:16;1.33;;;1.23;;
60239;SDS011;46102;39.012;-7.064;2024-01-07T10:49:21;3.38;;;1.40;;
60239;SDS011;46102;39.012;-7.064;2024-01-07T10:51:24;4.47;;;1.73;;
60239;SDS011;46102;39.012;-7.064;2024-01-07T10:53:28;1.77;;;1.48;;
60239;SDS011;46102;39.012;-7.064;2024-01-07T10:55:34;2.75;;;1.80;;
60239;SDS011;46102;39.012;-7.064;2024-01-07T10:59:41;5.73;;;2.33;;
60239;SDS011;46102;39.012;-7.064;2024-01-07T11:01:45;6.07;;;4.67;;
60239;SDS011;46102;39.012;-7.064;2024-01-07T11:06:08;3.38;;;2.72;;
60239;SDS011;46102;39.012;-7.064;2024-01-07T11:10:35;2.40;;;1.65;;
60239;SDS011;46102;39.012;-7.064;2024-01-07T11:12:40;1.67;;;1.58;;
60239;SDS011;46102;39.012;-7.064;2024-01-07T11:14:41;1.88;;;1.70;;
60239;SDS011;46102;39.012;-7.064;2024-01-07T11:16:51;2.42;;;2.22;;
60239;SDS011;46102;39.012;-7.064;2024-01-07T11:18:54;4.53;;;1.98;;
60239;SDS011;46102;39.012;-7.064;2024-01-07T11:20:58;1.40;;;1.30;;
60239;SDS011;46102;39.012;-7.064;2024-01-07T11:25:42;1.92;;;1.83;;
60239;SDS011;46102;39.012;-7.064;2024-01-07T11:27:43;1.67;;;1.58;;
60239;SDS011;46102;39.012;-7.064;2024-01-07T11:29:52;1.80;;;1.65;;
60239;SDS011;46102;39.012;-7.064;2024-01-07T11:31:55;1.42;;;1.27;;
60239;SDS011;46102;39.012;-7.064;2024-01-07T11:33:56;2.13;;;2.00;;
60239;SDS011;46102;39.012;-7.064;2024-01-07T11:35:58;3.83;;;1.35;;
60239;SDS011;46102;39.012;-7.064;2024-01-07T11:38:01;1.30;;;1.30;;
60239;SDS011;46102;39.012;-7.064;2024-01-07T11:40:03;1.15;;;1.15;;
60239;SDS011;46102;39.012;-7.064;2024-01-07T11:42:06;1.35;;;1.00;;
60239;SDS011;46102;39.012;-7.064;2024-01-07T11:44:07;3.67;;;1.40;;
60239;SDS011;46102;39.012;-7.064;2024-01-07T11:46:11;1.30;;;1.15;;
60239;SDS011;46102;39.012;-7.064;2024-01-07T11:48:12;2.58;;;2.33;;
60239;SDS011;46102;39.012;-7.064;2024-01-07T11:50:13;2.65;;;1.50;;
60239;SDS011;46102;39.012;-7.064;2024-01-07T11:52:13;1.67;;;1.25;;
60239;SDS011;46102;39.012;-7.064;2024-01-07T11:54:14;2.45;;;1.20;;
60239;SDS011;46102;39.012;-7.064;2024-01-07T11:56:15;1.10;;;0.82;;
60239;SDS011;46102;39.012;-7.064;2024-01-07T11:58:16;1.05;;;0.98;;
60239;SDS011;46102;39.012;-7.064;2024-01-07T12:00:17;1.65;;;1.55;;
60239;SDS011;46102;39.012;-7.064;2024-01-07T12:02:18;1.27;;;1.13;;
60239;SDS011;46102;39.012;-7.064;2024-01-07T12:04:20;0.98;;;0.98;;
60239;SDS011;46102;39.012;-7.064;2024-01-07T12:06:21;3.40;;;1.05;;
60239;SDS011;46102;39.012;-7.064;2024-01-07T12:08:21;4.45;;;1.98;;
60239;SDS011;46102;39.012;-7.064;2024-01-07T12:10:23;1.60;;;1.50;;
60239;SDS011;46102;39.012;-7.064;2024-01-07T12:12:24;1.98;;;1.10;;